Time;durP1;ratioP1;P1;durP2;ratioP2;P2;SDS_P1;SDS_P2;PMS_P1;PMS_P2;Temp;Humidity;BMP_temperature;BMP_pressure;BME280_temperature;BME280_humidity;BME280_pressure;Samples;Min_cycle;Max_cycle;Signal;HPM_P1;HPM_P2
2023/08/22 00:01:55;;;;;;;0.10;0.10;;;;;;;19.92;59.78;100845.69;7372860;19;20130;-56
2023/08/22 00:04:21;;;;;;;0.10;0.10;;;;;;;19.89;59.19;100843.19;7358272;19;20013;-56
2023/08/22 00:06:46;;;;;;;0.10;0.10;;;;;;;19.85;60.27;100827.56;7368504;19;20044;-58
2023/08/22 00:09:12;;;;;;;0.10;0.10;;;;;;;19.87;60.24;100839.78;7367327;19;20007;-58
2023/08/22 00:11:37;;;;;;;0.08;0.08;;;;;;;19.86;60.54;100840.72;7374445;19;20011;-57
2023/08/22 00:14:02;;;;;;;0.00;0.00;;;;;;;19.86;60.71;100835.41;7362524;19;20023;-58
2023/08/22 00:16:28;;;;;;;0.10;0.10;;;;;;;19.85;59.88;100846.97;7368330;19;20027;-57
2023/08/22 00:18:53;;;;;;;0.05;0.05;;;;;;;19.84;60.67;100844.41;7362730;19;20007;-57
2023/08/22 00:21:19;;;;;;;0.10;0.10;;;;;;;19.82;60.95;100841.88;7368026;19;20316;-57
2023/08/22 00:23:44;;;;;;;0.05;0.05;;;;;;;19.82;60.93;100851.59;7368740;19;20002;-58
2023/08/22 00:26:09;;;;;;;0.10;0.10;;;;;;;19.80;61.32;100838.44;7370276;19;20371;-58
2023/08/22 00:28:35;;;;;;;0.10;0.10;;;;;;;19.80;61.08;100849.03;7367771;19;20022;-58
2023/08/22 00:31:00;;;;;;;0.10;0.10;;;;;;;19.79;61.18;100844.69;7367934;19;20031;-58
2023/08/22 00:33:26;;;;;;;0.10;0.10;;;;;;;19.78;61.76;100845.63;7365608;19;20011;-57
2023/08/22 00:35:51;;;;;;;0.10;0.10;;;;;;;19.79;61.19;100852.63;7374089;19;20007;-58
2023/08/22 00:38:17;;;;;;;0.10;0.10;;;;;;;19.80;60.50;100837.59;7368926;19;20015;-57
2023/08/22 00:40:42;;;;;;;0.08;0.08;;;;;;;19.79;61.47;100842.03;7368685;19;20007;-58
2023/08/22 00:43:07;;;;;;;0.00;0.00;;;;;;;19.78;61.75;100829.72;7365478;19;20006;-58
2023/08/22 00:45:33;;;;;;;0.10;0.10;;;;;;;19.77;61.44;100838.63;7371778;19;20127;-57
2023/08/22 00:47:59;;;;;;;0.00;0.00;;;;;;;19.66;61.65;100814.53;7381252;19;20018;-56
2023/08/22 00:50:24;;;;;;;0.10;0.10;;;;;;;19.75;61.92;100818.44;7377644;19;20392;-59
2023/08/22 00:52:50;;;;;;;0.05;0.05;;;;;;;19.73;62.12;100815.91;7373933;19;20078;-58
2023/08/22 00:55:15;;;;;;;0.10;0.10;;;;;;;19.70;61.93;100821.38;7374815;19;20020;-58
2023/08/22 00:57:41;;;;;;;0.05;0.05;;;;;;;19.70;61.33;100827.53;7376728;19;20011;-57
2023/08/22 01:00:10;;;;;;;0.10;0.10;;;;;;;19.69;61.90;100814.38;7375839;19;20010;-57
2023/08/22 01:02:35;;;;;;;0.00;0.00;;;;;;;19.65;62.18;100818.13;7377904;19;20628;-57
2023/08/22 01:05:01;;;;;;;0.10;0.10;;;;;;;19.66;61.75;100814.53;7374243;19;20007;-58
2023/08/22 01:07:34;;;;;;;0.00;0.00;;;;;;;19.65;61.49;100829.59;7374605;19;20033;-58
2023/08/22 01:10:07;;;;;;;0.00;0.00;;;;;;;19.59;61.15;100813.16;7373092;19;20013;-57
2023/08/22 01:12:40;;;;;;;0.05;0.05;;;;;;;19.61;61.86;100808.66;7374158;19;20026;-57
2023/08/22 01:15:20;;;;;;;0.10;0.10;;;;;;;19.62;61.64;100818.34;7372952;19;20087;-58
2023/08/22 01:17:48;;;;;;;0.00;0.00;;;;;;;19.61;62.50;100811.31;7373232;19;20054;-58
2023/08/22 01:20:14;;;;;;;0.10;0.10;;;;;;;19.62;62.43;100807.75;7375069;19;20018;-57
2023/08/22 01:22:40;;;;;;;0.10;0.10;;;;;;;19.56;62.65;100805.38;7371425;19;20032;-57
2023/08/22 01:25:07;;;;;;;0.10;0.10;;;;;;;19.62;62.63;100813.88;7370796;19;20010;-55
2023/08/22 01:27:38;;;;;;;0.10;0.10;;;;;;;19.66;62.07;100819.84;7376060;19;20447;-58
2023/08/22 01:30:12;;;;;;;0.10;0.10;;;;;;;19.69;61.37;100824.97;7375024;19;20572;-57
2023/08/22 01:32:43;;;;;;;0.10;0.10;;;;;;;19.70;62.28;100824.03;7369837;19;20098;-58
2023/08/22 01:35:13;;;;;;;0.00;0.00;;;;;;;19.72;61.11;100823.91;7373194;19;20014;-57
2023/08/22 01:37:40;;;;;;;0.10;0.10;;;;;;;19.71;62.01;100807.19;7372179;19;20018;-58
2023/08/22 01:40:07;;;;;;;0.00;0.00;;;;;;;19.71;62.35;100817.78;7370895;19;20002;-58
2023/08/22 01:42:33;;;;;;;0.00;0.00;;;;;;;19.66;61.92;100815.38;7376361;19;20025;-58
2023/08/22 01:44:58;;;;;;;0.10;0.10;;;;;;;19.71;62.20;100817.78;7372260;19;20494;-57
2023/08/22 01:47:24;;;;;;;0.00;0.00;;;;;;;19.59;61.58;100797.28;7372611;19;20118;-57
2023/08/22 01:49:49;;;;;;;0.10;0.10;;;;;;;19.71;61.60;100817.78;7369991;19;20011;-59
2023/08/22 01:52:15;;;;;;;0.00;0.00;;;;;;;19.69;62.28;100811.72;7373469;19;20005;-58
2023/08/22 01:54:40;;;;;;;0.00;0.00;;;;;;;19.67;62.03;100810.97;7371309;19;20038;-58
2023/08/22 01:57:05;;;;;;;0.10;0.10;;;;;;;19.65;62.24;100818.13;7371881;19;20518;-58
2023/08/22 01:59:31;;;;;;;0.08;0.08;;;;;;;19.63;61.90;100817.38;7366425;19;20014;-58
2023/08/22 02:01:56;;;;;;;0.00;0.00;;;;;;;19.60;61.94;100810.47;7368794;19;20817;-58
2023/08/22 02:04:22;;;;;;;0.10;0.10;;;;;;;19.59;62.13;100826.41;7370978;19;20013;-57
2023/08/22 02:06:47;;;;;;;0.10;0.10;;;;;;;19.57;61.76;100820.38;7370572;19;20007;-58
2023/08/22 02:09:13;;;;;;;0.00;0.00;;;;;;;19.54;62.00;100825.84;7365414;19;20494;-57
2023/08/22 02:11:39;;;;;;;0.00;0.00;;;;;;;19.46;62.18;100818.31;7373161;19;20400;-57
2023/08/22 02:14:04;;;;;;;0.00;0.00;;;;;;;19.45;62.33;100817.47;7364813;19;20398;-57
2023/08/22 02:16:30;;;;;;;0.10;0.10;;;;;;;19.32;62.94;100805.88;7368413;19;20023;-58
2023/08/22 02:18:55;;;;;;;0.00;0.00;;;;;;;19.43;62.00;100829.94;7375140;19;20006;-58
2023/08/22 02:21:21;;;;;;;0.10;0.10;;;;;;;19.45;62.48;100828.06;7372057;19;20440;-56
2023/08/22 02:23:46;;;;;;;0.10;0.10;;;;;;;19.43;62.79;100829.94;7361955;19;20015;-57
2023/08/22 02:26:11;;;;;;;0.10;0.10;;;;;;;19.44;62.73;100825.50;7374108;19;20023;-57
2023/08/22 02:28:37;;;;;;;0.10;0.10;;;;;;;19.41;62.66;100847.75;7368351;19;20003;-58
2023/08/22 02:31:02;;;;;;;0.10;0.10;;;;;;;19.42;62.64;100836.19;7371315;19;20017;-58
2023/08/22 02:33:27;;;;;;;0.10;0.10;;;;;;;19.41;61.86;100847.75;7368178;19;20010;-55
2023/08/22 02:35:53;;;;;;;0.10;0.10;;;;;;;19.39;62.95;100841.66;7370203;19;20009;-58
2023/08/22 02:38:19;;;;;;;0.00;0.00;;;;;;;19.35;63.21;100853.34;7369661;19;20006;-57
2023/08/22 02:40:45;;;;;;;0.00;0.00;;;;;;;19.34;63.27;100835.78;7372940;19;20082;-58
2023/08/22 02:43:10;;;;;;;0.10;0.10;;;;;;;19.33;62.64;100842.00;7368266;19;20022;-57
2023/08/22 02:45:37;;;;;;;0.10;0.10;;;;;;;19.31;63.76;100843.91;7370295;19;20107;-58
2023/08/22 02:48:02;;;;;;;0.10;0.10;;;;;;;19.25;63.02;100841.59;7368414;19;20024;-56
2023/08/22 02:50:28;;;;;;;0.05;0.05;;;;;;;19.27;63.16;100837.06;7372589;19;20018;-56
2023/08/22 02:52:54;;;;;;;0.10;0.10;;;;;;;19.25;63.79;100841.59;7369571;19;20066;-56
2023/08/22 02:55:19;;;;;;;0.10;0.10;;;;;;;19.25;62.67;100841.59;7373449;19;20014;-57
2023/08/22 02:57:45;;;;;;;0.10;0.10;;;;;;;19.22;63.83;100844.41;7371036;19;20007;-56
2023/08/22 03:00:12;;;;;;;0.10;0.10;;;;;;;19.21;63.97;100848.03;7366740;19;20002;-58
2023/08/22 03:02:37;;;;;;;;;;;;;;;19.22;61.14;100849.72;7368163;19;20450;-57
2023/08/22 03:05:06;;;;;;;0.10;0.10;;;;;;;19.18;64.00;100834.94;7364550;19;19926;-57
2023/08/22 03:07:32;;;;;;;0.10;0.10;;;;;;;19.15;64.02;100830.66;7368489;19;21369;-56
2023/08/22 03:09:57;;;;;;;0.10;0.10;;;;;;;19.13;64.30;100837.00;7365289;19;20132;-58
2023/08/22 03:12:23;;;;;;;0.08;0.08;;;;;;;19.10;64.21;100843.28;7371530;19;20019;-58
2023/08/22 03:14:48;;;;;;;0.05;0.05;;;;;;;19.07;64.37;100838.19;7364089;19;20069;-57
2023/08/22 03:17:13;;;;;;;0.00;0.00;;;;;;;19.06;64.61;100846.19;7367571;19;20010;-58
2023/08/22 03:19:39;;;;;;;0.10;0.10;;;;;;;19.03;64.40;100846.38;7346594;19;20011;-58
2023/08/22 03:22:04;;;;;;;0.00;0.00;;;;;;;19.01;64.83;100837.66;7369602;19;20010;-56
2023/08/22 03:24:30;;;;;;;0.10;0.10;;;;;;;18.93;65.11;100836.31;7368600;19;20014;-57
2023/08/22 03:26:56;;;;;;;0.10;0.10;;;;;;;18.86;65.38;100819.06;7366888;19;20027;-57
2023/08/22 03:29:21;;;;;;;0.10;0.10;;;;;;;18.93;65.24;100831.00;7370756;19;20448;-58
2023/08/22 03:31:47;;;;;;;0.10;0.10;;;;;;;18.88;64.80;100825.13;7367960;19;20070;-58
2023/08/22 03:34:12;;;;;;;0.10;0.10;;;;;;;18.90;65.15;100836.47;7369081;19;20703;-56
2023/08/22 03:36:37;;;;;;;0.05;0.05;;;;;;;18.86;65.17;100834.94;7370459;19;20006;-58
2023/08/22 03:39:03;;;;;;;0.05;0.05;;;;;;;18.89;65.00;100828.63;7368198;19;20022;-57
2023/08/22 03:41:28;;;;;;;0.10;0.10;;;;;;;18.88;64.85;100834.84;7361595;19;21559;-58
2023/08/22 03:43:53;;;;;;;0.10;0.10;;;;;;;18.86;64.68;100840.25;7368203;19;20011;-58
2023/08/22 03:46:19;;;;;;;0.00;0.00;;;;;;;18.86;65.21;100845.53;7366956;19;20007;-58
2023/08/22 03:48:44;;;;;;;0.10;0.10;;;;;;;18.86;64.87;100840.25;7365708;19;20442;-58
2023/08/22 03:51:10;;;;;;;0.10;0.10;;;;;;;18.87;65.39;100836.66;7368793;19;20010;-58
2023/08/22 03:53:37;;;;;;;0.10;0.10;;;;;;;18.87;65.44;100841.94;7370778;19;20730;-57
2023/08/22 03:56:03;;;;;;;0.10;0.10;;;;;;;18.87;65.17;100836.66;7373075;19;20026;-58
2023/08/22 03:58:28;;;;;;;0.10;0.10;;;;;;;18.86;65.43;100840.25;7369934;19;20007;-58
2023/08/22 04:00:55;;;;;;;0.10;0.10;;;;;;;18.86;65.74;100840.25;7368653;19;20018;-58
2023/08/22 04:03:20;;;;;;;0.00;0.00;;;;;;;18.85;65.56;100846.44;7366912;19;20127;-57
2023/08/22 04:05:46;;;;;;;0.10;0.10;;;;;;;18.85;65.48;100854.38;7368862;19;20011;-59
2023/08/22 04:08:11;;;;;;;0.10;0.10;;;;;;;18.85;64.17;100858.81;7366417;19;20006;-58
2023/08/22 04:10:37;;;;;;;0.00;0.00;;;;;;;18.85;65.54;100848.25;7368887;19;20013;-58
2023/08/22 04:13:03;;;;;;;0.10;0.10;;;;;;;18.83;65.82;100850.97;7365264;19;20050;-57
2023/08/22 04:15:28;;;;;;;0.00;0.00;;;;;;;18.82;65.90;100843.97;7366352;19;20006;-57
2023/08/22 04:17:53;;;;;;;0.00;0.00;;;;;;;18.82;65.95;100838.69;7366540;19;20018;-58
2023/08/22 04:20:19;;;;;;;0.10;0.10;;;;;;;18.80;66.23;100835.25;7371480;19;20010;-56
2023/08/22 04:22:44;;;;;;;0.00;0.00;;;;;;;18.75;66.13;100837.31;7376734;19;20019;-57
2023/08/22 04:25:10;;;;;;;0.10;0.10;;;;;;;18.80;66.18;100840.56;7371314;19;20028;-57
2023/08/22 04:27:36;;;;;;;0.10;0.10;;;;;;;18.79;65.52;100833.56;7377383;19;20413;-58
2023/08/22 04:30:01;;;;;;;0.10;0.10;;;;;;;18.67;66.15;100815.69;7375995;19;20487;-56
2023/08/22 04:32:27;;;;;;;0.10;0.10;;;;;;;18.77;65.83;100830.16;7374330;19;20015;-58
2023/08/22 04:34:52;;;;;;;0.10;0.10;;;;;;;18.77;65.98;100835.44;7375340;19;20010;-58
2023/08/22 04:37:18;;;;;;;0.10;0.10;;;;;;;18.74;66.02;100825.03;7375976;19;20010;-57
2023/08/22 04:39:43;;;;;;;0.10;0.10;;;;;;;18.72;66.49;100837.50;7376784;19;20591;-58
2023/08/22 04:42:09;;;;;;;0.00;0.00;;;;;;;18.69;66.46;100829.72;7377932;19;20590;-57
2023/08/22 04:44:34;;;;;;;0.10;0.10;;;;;;;18.65;66.59;100830.78;7370710;19;20013;-57
2023/08/22 04:46:59;;;;;;;0.00;0.00;;;;;;;18.62;66.24;100842.38;7371959;19;20021;-57
2023/08/22 04:49:25;;;;;;;0.10;0.10;;;;;;;18.59;65.79;100836.41;7372162;19;20040;-57
2023/08/22 04:51:50;;;;;;;0.00;0.00;;;;;;;18.56;66.50;100829.50;7374629;19;20396;-58
2023/08/22 04:54:16;;;;;;;0.10;0.10;;;;;;;18.54;66.60;100833.16;7375425;19;20032;-58
2023/08/22 04:56:41;;;;;;;0.10;0.10;;;;;;;18.49;66.55;100843.13;7376963;19;20721;-58
2023/08/22 04:59:07;;;;;;;0.10;0.10;;;;;;;18.48;66.79;100838.78;7381531;19;20350;-58
2023/08/22 05:01:33;;;;;;;0.03;0.03;;;;;;;18.47;66.36;100839.72;7373327;19;20622;-57
2023/08/22 05:03:58;;;;;;;0.10;0.10;;;;;;;18.45;67.18;100838.91;7375073;19;20002;-58
2023/08/22 05:06:23;;;;;;;0.00;0.00;;;;;;;18.41;67.03;100839.09;7373182;19;20006;-58
2023/08/22 05:08:49;;;;;;;0.10;0.10;;;;;;;18.41;67.27;100841.75;7373851;19;20026;-57
2023/08/22 05:11:14;;;;;;;0.00;0.00;;;;;;;18.38;67.02;100839.25;7373639;19;20028;-59
2023/08/22 05:13:40;;;;;;;0.00;0.00;;;;;;;18.38;67.20;100844.53;7374280;19;20036;-57
2023/08/22 05:16:05;;;;;;;0.10;0.10;;;;;;;18.37;67.00;100832.25;7371077;19;20052;-58
2023/08/22 05:18:30;;;;;;;0.00;0.00;;;;;;;18.38;66.53;100847.19;7375818;19;20007;-58
2023/08/22 05:20:56;;;;;;;0.00;0.00;;;;;;;18.36;67.21;100846.44;7373956;19;20014;-58
2023/08/22 05:23:22;;;;;;;0.10;0.10;;;;;;;18.37;67.25;100853.41;7374343;19;20014;-58
2023/08/22 05:25:47;;;;;;;0.10;0.10;;;;;;;18.38;67.42;100854.25;7373438;19;20434;-58
2023/08/22 05:28:12;;;;;;;0.00;0.00;;;;;;;18.39;66.45;100851.53;7372421;19;20106;-58
2023/08/22 05:30:38;;;;;;;0.03;0.03;;;;;;;18.40;66.76;100857.72;7372996;19;20047;-58
2023/08/22 05:33:05;;;;;;;0.00;0.00;;;;;;;18.41;66.46;100860.25;7374153;19;20014;-57
2023/08/22 05:35:30;;;;;;;0.00;0.00;;;;;;;18.38;66.54;100859.56;7375148;19;20010;-57
2023/08/22 05:37:55;;;;;;;0.10;0.10;;;;;;;18.40;66.21;100871.78;7373966;19;20814;-58
2023/08/22 05:40:21;;;;;;;0.00;0.00;;;;;;;18.38;65.85;100868.34;7375056;19;20027;-58
2023/08/22 05:42:46;;;;;;;0.10;0.10;;;;;;;18.32;65.78;100876.59;7372132;19;20011;-58
2023/08/22 05:45:12;;;;;;;0.00;0.00;;;;;;;18.36;65.58;100882.59;7371522;19;20026;-58
2023/08/22 05:47:37;;;;;;;0.10;0.10;;;;;;;18.34;65.76;100877.34;7371384;19;20017;-57
2023/08/22 05:50:04;;;;;;;0.10;0.10;;;;;;;18.28;65.76;100875.03;7373089;19;20019;-58
2023/08/22 05:52:29;;;;;;;0.10;0.10;;;;;;;18.32;65.39;100887.16;7381162;19;20010;-58
2023/08/22 05:54:55;;;;;;;0.00;0.00;;;;;;;18.30;65.41;100891.69;7380786;19;20006;-57
2023/08/22 05:57:22;;;;;;;0.00;0.00;;;;;;;18.28;65.58;100885.63;7377397;19;20473;-58
2023/08/22 05:59:51;;;;;;;0.03;0.03;;;;;;;18.26;65.74;100898.06;7367796;19;20011;-58
2023/08/22 06:02:16;;;;;;;0.00;0.00;;;;;;;18.23;65.54;100908.78;7370738;19;20010;-58
2023/08/22 06:04:44;;;;;;;0.00;0.00;;;;;;;18.24;65.57;100913.13;7371133;19;20010;-58
2023/08/22 06:07:10;;;;;;;0.00;0.00;;;;;;;18.25;65.63;100916.63;7362887;19;20553;-58
2023/08/22 06:09:35;;;;;;;0.10;0.10;;;;;;;18.21;65.86;100921.25;7368698;19;20081;-58
2023/08/22 06:12:00;;;;;;;0.10;0.10;;;;;;;18.24;65.54;100930.78;7372189;19;20054;-58
2023/08/22 06:14:27;;;;;;;0.10;0.10;;;;;;;18.21;65.82;100923.88;7370070;19;20006;-58
2023/08/22 06:16:53;;;;;;;0.10;0.10;;;;;;;18.26;65.91;100929.78;7371390;19;20014;-57
2023/08/22 06:19:18;;;;;;;0.00;0.00;;;;;;;18.28;65.72;100925.28;7371677;19;20010;-58
2023/08/22 06:21:44;;;;;;;0.00;0.00;;;;;;;18.30;65.61;100941.06;7369401;19;20035;-57
2023/08/22 06:24:09;;;;;;;0.00;0.00;;;;;;;18.31;65.69;100938.34;7370052;19;20676;-58
2023/08/22 06:26:35;;;;;;;0.10;0.10;;;;;;;18.33;65.28;100936.47;7364061;19;20078;-57
2023/08/22 06:29:00;;;;;;;0.10;0.10;;;;;;;18.33;65.39;100940.91;7372659;19;20010;-58
2023/08/22 06:31:26;;;;;;;0.00;0.00;;;;;;;18.37;65.40;100951.25;7367989;19;20014;-58
2023/08/22 06:33:51;;;;;;;0.00;0.00;;;;;;;18.37;65.70;100942.47;7370354;19;20022;-57
2023/08/22 06:36:17;;;;;;;0.10;0.10;;;;;;;18.32;65.22;100940.06;7371686;19;20021;-57
2023/08/22 06:38:42;;;;;;;0.10;0.10;;;;;;;18.37;65.21;100953.88;7370823;19;20037;-57
2023/08/22 06:41:07;;;;;;;0.10;0.10;;;;;;;18.37;65.61;100964.47;7370714;19;20341;-58
2023/08/22 06:43:34;;;;;;;0.00;0.00;;;;;;;18.39;65.25;100973.16;7365865;19;20007;-58
2023/08/22 06:45:59;;;;;;;0.05;0.05;;;;;;;18.39;65.57;100967.03;7370295;19;20010;-57
2023/08/22 06:48:26;;;;;;;0.00;0.00;;;;;;;18.40;65.71;100974.91;7365711;19;20002;-57
2023/08/22 06:50:52;;;;;;;0.00;0.00;;;;;;;18.44;65.82;100977.38;7369583;19;20018;-58
2023/08/22 06:53:19;;;;;;;0.00;0.00;;;;;;;18.46;65.84;100975.53;7368625;19;20702;-58
2023/08/22 06:55:47;;;;;;;0.20;0.20;;;;;;;18.52;65.47;100983.13;7371637;19;20658;-58
2023/08/22 06:58:13;;;;;;;0.00;0.00;;;;;;;18.52;65.45;100983.13;7369312;19;20038;-57
2023/08/22 07:00:38;;;;;;;0.00;0.00;;;;;;;18.57;65.38;100989.88;7368081;19;20503;-58
2023/08/22 07:03:04;;;;;;;0.10;0.10;;;;;;;18.61;65.84;100993.25;7371114;19;20006;-58
2023/08/22 07:05:29;;;;;;;0.10;0.10;;;;;;;18.69;65.15;101004.31;7369717;19;20526;-56
2023/08/22 07:07:55;;;;;;;0.00;0.00;;;;;;;18.74;65.22;101004.91;7375509;19;20061;-57
2023/08/22 07:10:21;;;;;;;0.00;0.00;;;;;;;18.77;65.15;101003.91;7371524;19;20041;-58
2023/08/22 07:12:46;;;;;;;0.10;0.10;;;;;;;18.82;65.04;101013.31;7368850;19;20021;-57
2023/08/22 07:15:12;;;;;;;0.00;0.00;;;;;;;18.78;64.93;100998.53;7371509;19;20700;-58
2023/08/22 07:17:37;;;;;;;0.10;0.10;;;;;;;18.89;64.75;101016.50;7366653;19;20545;-58
2023/08/22 07:20:03;;;;;;;0.10;0.10;;;;;;;18.91;64.54;101012.84;7367407;19;20010;-58
2023/08/22 07:22:28;;;;;;;0.05;0.05;;;;;;;18.93;64.51;101026.84;7370177;19;20043;-58
2023/08/22 07:24:54;;;;;;;0.10;0.10;;;;;;;18.98;64.68;101031.03;7368743;19;20033;-57
2023/08/22 07:27:21;;;;;;;0.10;0.10;;;;;;;19.02;64.78;101040.53;7368802;19;20630;-58
2023/08/22 07:29:46;;;;;;;0.10;0.10;;;;;;;19.05;64.35;101038.56;7367122;19;20088;-57
2023/08/22 07:32:12;;;;;;;0.10;0.10;;;;;;;19.02;64.50;101032.59;7361763;19;20066;-57
2023/08/22 07:34:37;;;;;;;0.00;0.00;;;;;;;19.13;64.20;101043.47;7368860;19;20013;-58
2023/08/22 07:37:03;;;;;;;0.10;0.10;;;;;;;19.13;64.24;101043.47;7367040;19;20488;-58
2023/08/22 07:39:28;;;;;;;0.10;0.10;;;;;;;19.16;64.06;101043.31;7366691;19;20002;-58
2023/08/22 07:41:54;;;;;;;0.00;0.00;;;;;;;19.14;64.27;101045.19;7367968;19;20025;-58
2023/08/22 07:44:20;;;;;;;0.10;0.10;;;;;;;19.23;64.31;101050.00;7367468;19;20041;-59
2023/08/22 07:46:45;;;;;;;0.10;0.10;;;;;;;19.26;64.34;101047.19;7367097;19;20604;-58
2023/08/22 07:49:10;;;;;;;0.03;0.03;;;;;;;19.21;64.36;101045.69;7367868;19;19998;-57
2023/08/22 07:51:36;;;;;;;0.05;0.05;;;;;;;19.22;64.11;101042.16;7365605;19;20013;-57
2023/08/22 07:54:03;;;;;;;0.10;0.10;;;;;;;19.37;64.36;101063.34;7364309;19;20028;-58
2023/08/22 07:56:28;;;;;;;0.10;0.10;;;;;;;19.41;64.75;101067.56;7369116;19;20785;-58
2023/08/22 07:58:54;;;;;;;0.10;0.10;;;;;;;19.47;64.59;101073.47;7368010;19;20007;-57
2023/08/22 08:01:19;;;;;;;0.10;0.10;;;;;;;19.48;64.01;101070.72;7367081;19;20006;-58
2023/08/22 08:03:45;;;;;;;0.10;0.10;;;;;;;19.52;64.59;101074.06;7364598;19;20021;-57
2023/08/22 08:06:11;;;;;;;0.10;0.10;;;;;;;19.55;64.04;101081.84;7364311;19;19991;-59
2023/08/22 08:08:36;;;;;;;0.00;0.00;;;;;;;19.56;64.46;101080.88;7369231;19;20014;-58
2023/08/22 08:11:02;;;;;;;0.10;0.10;;;;;;;19.58;64.63;101073.72;7366885;19;19998;-58
2023/08/22 08:13:27;;;;;;;0.00;0.00;;;;;;;19.61;64.56;101076.22;7362811;19;20006;-58
2023/08/22 08:15:53;;;;;;;0.00;0.00;;;;;;;19.64;64.17;101076.06;7365375;19;20002;-58
2023/08/22 08:18:18;;;;;;;0.10;0.10;;;;;;;19.69;64.66;101079.34;7369108;19;20006;-57
2023/08/22 08:20:44;;;;;;;0.10;0.10;;;;;;;19.75;64.60;101084.28;7367677;19;20006;-59
2023/08/22 08:23:10;;;;;;;0.10;0.10;;;;;;;19.79;64.45;101088.47;7365307;19;20007;-58
2023/08/22 08:25:36;;;;;;;0.10;0.10;;;;;;;19.86;64.05;101076.59;7364881;19;20019;-58
2023/08/22 08:28:04;;;;;;;0.10;0.10;;;;;;;19.90;64.25;101078.13;7364938;19;20763;-57
2023/08/22 08:30:30;;;;;;;0.10;0.10;;;;;;;19.98;64.02;101079.53;7364772;19;20621;-57
2023/08/22 08:32:55;;;;;;;0.10;0.10;;;;;;;19.98;63.63;101074.22;7366881;19;20355;-57
2023/08/22 08:35:21;;;;;;;0.00;0.00;;;;;;;20.12;63.49;101088.41;7365364;19;20006;-58
2023/08/22 08:37:47;;;;;;;0.00;0.00;;;;;;;20.15;63.01;101088.22;7364178;19;20013;-58
2023/08/22 08:40:12;;;;;;;0.03;0.03;;;;;;;20.22;63.14;101088.72;7366395;19;20037;-56
2023/08/22 08:42:38;;;;;;;0.00;0.00;;;;;;;20.29;62.80;101084.81;7361622;19;20660;-58
2023/08/22 08:45:05;;;;;;;0.08;0.08;;;;;;;20.34;62.76;101087.19;7366577;19;20529;-59
2023/08/22 08:47:32;;;;;;;0.10;0.10;;;;;;;20.41;62.73;101089.38;7370843;19;20026;-57
2023/08/22 08:49:59;;;;;;;0.10;0.10;;;;;;;20.46;62.79;101092.66;7365637;19;20011;-58
2023/08/22 08:52:26;;;;;;;0.10;0.10;;;;;;;20.56;62.82;101092.13;7366412;19;20007;-58
2023/08/22 08:54:53;;;;;;;0.03;0.03;;;;;;;20.66;62.22;101098.63;7363422;19;20003;-58
2023/08/22 08:57:18;;;;;;;0.10;0.10;;;;;;;20.79;61.14;101094.31;7361741;19;20023;-57
2023/08/22 08:59:44;;;;;;;0.00;0.00;;;;;;;20.86;61.17;101089.47;7362782;19;20018;-58
2023/08/22 09:02:16;;;;;;;0.10;0.10;;;;;;;21.01;61.13;101103.66;7366261;19;20013;-58
2023/08/22 09:04:42;;;;;;;0.10;0.10;;;;;;;21.09;60.74;101096.09;7371894;19;20458;-56
2023/08/22 09:07:08;;;;;;;0.08;0.08;;;;;;;21.18;60.40;101104.31;7369464;19;20018;-58
2023/08/22 09:09:35;;;;;;;0.10;0.10;;;;;;;21.27;60.27;101102.06;7371931;19;20019;-58
2023/08/22 09:12:04;;;;;;;0.10;0.10;;;;;;;21.40;60.04;101095.09;7373567;19;20018;-58
2023/08/22 09:14:30;;;;;;;0.10;0.10;;;;;;;21.46;59.71;101095.56;7378220;19;20034;-58
2023/08/22 09:16:59;;;;;;;0.10;0.10;;;;;;;21.63;59.99;101104.28;7368381;19;20197;-58
2023/08/22 09:19:25;;;;;;;0.10;0.10;;;;;;;21.53;59.54;101084.53;7373265;19;20024;-57
2023/08/22 09:22:16;;;;;;;0.10;0.10;;;;;;;21.82;59.52;101112.81;7361731;19;20018;-57
2023/08/22 09:24:53;;;;;;;0.10;0.10;;;;;;;21.87;59.38;101105.41;7367970;19;20733;-58
2023/08/22 09:27:23;;;;;;;0.10;0.10;;;;;;;21.91;58.63;101106.91;7366203;19;21146;-58
2023/08/22 09:29:48;;;;;;;0.00;0.00;;;;;;;21.94;58.13;101106.72;7373966;19;20882;-57
2023/08/22 09:32:14;;;;;;;0.10;0.10;;;;;;;22.00;58.19;101116.13;7368161;19;20012;-56
2023/08/22 09:34:52;;;;;;;0.05;0.05;;;;;;;22.15;58.75;101115.19;7368671;19;20014;-57
2023/08/22 09:37:32;;;;;;;0.10;0.10;;;;;;;22.26;58.70;101106.50;7365968;19;20013;-59
2023/08/22 09:39:57;;;;;;;0.10;0.10;;;;;;;22.38;58.23;101116.31;7369725;19;20023;-58
2023/08/22 09:42:26;;;;;;;0.10;0.10;;;;;;;22.54;57.84;101117.00;7371380;19;20066;-58
2023/08/22 09:44:55;;;;;;;0.00;0.00;;;;;;;22.72;57.95;101119.44;7368602;19;20018;-59
2023/08/22 09:47:21;;;;;;;0.00;0.00;;;;;;;22.88;56.83;101114.81;7370227;19;20006;-57
2023/08/22 09:49:50;;;;;;;0.10;0.10;;;;;;;22.99;57.04;101122.91;7368143;19;20019;-58
2023/08/22 09:52:16;;;;;;;0.10;0.10;;;;;;;23.02;56.78;101133.38;7372467;19;20006;-56
2023/08/22 09:54:43;;;;;;;0.10;0.10;;;;;;;23.09;56.36;101125.81;7372121;19;20009;-58
2023/08/22 09:57:10;;;;;;;0.10;0.10;;;;;;;23.13;55.95;101135.31;7369597;19;20027;-58
2023/08/22 09:59:37;;;;;;;0.10;0.10;;;;;;;23.13;55.35;101123.78;7373107;19;20014;-58
2023/08/22 10:02:04;;;;;;;0.10;0.10;;;;;;;23.18;56.29;101122.50;7371971;19;20006;-58
2023/08/22 10:04:30;;;;;;;0.10;0.10;;;;;;;23.20;55.23;101115.25;7370309;19;20023;-58
2023/08/22 10:06:55;;;;;;;0.10;0.10;;;;;;;23.36;54.98;101120.38;7364871;19;20066;-58
2023/08/22 10:09:21;;;;;;;0.10;0.10;;;;;;;23.42;55.02;101125.31;7370497;19;20006;-57
2023/08/22 10:12:01;;;;;;;0.10;0.10;;;;;;;23.54;54.99;101129.75;7371668;19;20082;-58
2023/08/22 10:14:37;;;;;;;0.00;0.00;;;;;;;23.67;54.80;101123.59;7367670;19;20442;-58
2023/08/22 10:17:02;;;;;;;0.10;0.10;;;;;;;23.67;53.70;101123.59;7373649;19;19999;-59
2023/08/22 10:19:30;;;;;;;0.10;0.10;;;;;;;23.71;53.63;101135.75;7367773;19;20489;-58
2023/08/22 10:22:05;;;;;;;0.15;0.15;;;;;;;23.79;54.46;101128.06;7370794;19;20009;-58
2023/08/22 10:24:31;;;;;;;0.10;0.10;;;;;;;23.77;54.64;101125.50;7366047;19;20023;-58
2023/08/22 10:27:04;;;;;;;0.10;0.10;;;;;;;23.95;55.18;101122.47;7369164;19;20021;-58
2023/08/22 10:30:08;;;;;;;0.10;0.10;;;;;;;24.19;55.33;101130.53;7371081;19;20336;-58
2023/08/22 10:32:34;;;;;;;0.10;0.10;;;;;;;24.28;53.37;101129.81;7373949;19;20006;-59
2023/08/22 10:35:19;;;;;;;0.10;0.10;;;;;;;24.42;53.67;101139.53;7377095;19;20007;-58
2023/08/22 10:37:49;;;;;;;0.10;0.10;;;;;;;24.42;52.58;101137.72;7376779;19;20007;-57
2023/08/22 10:40:31;;;;;;;0.10;0.10;;;;;;;24.44;53.63;101135.78;7371080;19;20025;-59
2023/08/22 10:43:04;;;;;;;0.00;0.00;;;;;;;24.40;54.31;101139.66;7371565;19;20007;-58
2023/08/22 10:45:56;;;;;;;0.08;0.08;;;;;;;24.46;53.83;101152.53;7368645;19;20010;-59
2023/08/22 10:48:21;;;;;;;0.10;0.10;;;;;;;24.47;51.68;101169.41;7360738;19;20005;-58
2023/08/22 10:50:49;;;;;;;0.10;0.10;;;;;;;24.46;52.00;101157.03;7362416;19;20011;-58
2023/08/22 10:53:26;;;;;;;0.10;0.10;;;;;;;24.42;52.00;101168.91;7367664;19;20010;-58
2023/08/22 10:55:52;;;;;;;0.10;0.10;;;;;;;24.26;51.87;101169.13;7363834;19;20011;-59
2023/08/22 10:58:41;;;;;;;0.10;0.10;;;;;;;24.21;52.24;101161.47;7369371;19;20363;-58
2023/08/22 11:01:12;;;;;;;0.10;0.10;;;;;;;24.06;51.79;101158.06;7369066;19;20014;-58
2023/08/22 11:03:38;;;;;;;0.10;0.10;;;;;;;23.88;51.97;101159.41;7363861;19;20006;-58
2023/08/22 11:06:11;;;;;;;0.00;0.00;;;;;;;23.78;52.15;101161.03;7370990;19;20014;-59
2023/08/22 11:08:38;;;;;;;0.00;0.00;;;;;;;23.59;52.50;101157.91;7373231;19;20035;-59
2023/08/22 11:11:04;;;;;;;0.08;0.08;;;;;;;23.34;52.09;101137.44;7371984;19;20120;-58
2023/08/22 11:13:37;;;;;;;0.10;0.10;;;;;;;23.33;52.31;101157.91;7365333;19;20452;-58
2023/08/22 11:16:14;;;;;;;0.10;0.10;;;;;;;23.18;52.76;101174.94;7360020;19;21063;-58
2023/08/22 11:18:40;;;;;;;0.10;0.10;;;;;;;23.03;52.54;101155.53;7369053;19;20723;-58
2023/08/22 11:21:06;;;;;;;0.10;0.10;;;;;;;23.01;53.29;101162.75;7364204;19;20014;-58
2023/08/22 11:23:33;;;;;;;0.10;0.10;;;;;;;22.95;53.56;101161.34;7369211;19;20034;-55